sensor_id;sensor_type;location;lat;lon;timestamp;pressure;altitude;pressure_sealevel;temperature;humidity
30598;BME280;17365;48.878;8.334;2022-09-09T00:04:27;99666.31;;;17.87;81.01
30598;BME280;17365;48.878;8.334;2022-09-09T00:09:31;99674.09;;;17.64;81.40
30598;BME280;17365;48.878;8.334;2022-09-09T00:12:04;99672.25;;;17.67;81.46
30598;BME280;17365;48.878;8.334;2022-09-09T00:17:09;99668.66;;;17.43;82.36
30598;BME280;17365;48.878;8.334;2022-09-09T00:19:43;99667.50;;;17.52;82.30
30598;BME280;17365;48.878;8.334;2022-09-09T00:22:22;99677.75;;;17.60;81.90
30598;BME280;17365;48.878;8.334;2022-09-09T00:24:53;99663.06;;;17.81;80.73
30598;BME280;17365;48.878;8.334;2022-09-09T00:32:39;99665.78;;;18.02;79.54
30598;BME280;17365;48.878;8.334;2022-09-09T00:38:10;99661.34;;;18.04;79.77
30598;BME280;17365;48.878;8.334;2022-09-09T00:40:50;99658.72;;;18.04;80.21
30598;BME280;17365;48.878;8.334;2022-09-09T00:43:29;99665.22;;;17.68;82.45
30598;BME280;17365;48.878;8.334;2022-09-09T00:46:14;99661.44;;;17.77;80.14
30598;BME280;17365;48.878;8.334;2022-09-09T00:49:05;99674.59;;;18.00;77.74
30598;BME280;17365;48.878;8.334;2022-09-09T00:52:16;99677.94;;;17.80;77.11
30598;BME280;17365;48.878;8.334;2022-09-09T00:55:10;99676.66;;;17.92;76.66
30598;BME280;17365;48.878;8.334;2022-09-09T00:57:40;99682.44;;;18.01;75.24
30598;BME280;17365;48.878;8.334;2022-09-09T01:07:57;99714.47;;;18.36;72.05
30598;BME280;17365;48.878;8.334;2022-09-09T01:13:02;99718.41;;;18.23;72.83
30598;BME280;17365;48.878;8.334;2022-09-09T01:15:31;99730.38;;;18.07;75.58
30598;BME280;17365;48.878;8.334;2022-09-09T01:18:06;99747.81;;;17.83;79.32
30598;BME280;17365;48.878;8.334;2022-09-09T01:26:22;99725.69;;;17.10;86.95
30598;BME280;17365;48.878;8.334;2022-09-09T01:28:51;99737.09;;;17.08;87.71
30598;BME280;17365;48.878;8.334;2022-09-09T01:31:31;99735.31;;;17.08;89.97
30598;BME280;17365;48.878;8.334;2022-09-09T01:33:57;99742.91;;;16.90;91.24
30598;BME280;17365;48.878;8.334;2022-09-09T01:36:28;99735.22;;;16.83;92.59
30598;BME280;17365;48.878;8.334;2022-09-09T01:38:55;99731.31;;;16.67;94.41
30598;BME280;17365;48.878;8.334;2022-09-09T01:41:20;99734.91;;;16.63;95.16
30598;BME280;17365;48.878;8.334;2022-09-09T01:43:46;99735.69;;;16.68;93.94
30598;BME280;17365;48.878;8.334;2022-09-09T01:46:13;99720.63;;;16.44;97.06
30598;BME280;17365;48.878;8.334;2022-09-09T01:48:39;99715.34;;;16.45;98.28
30598;BME280;17365;48.878;8.334;2022-09-09T01:51:05;99706.63;;;16.76;95.31
30598;BME280;17365;48.878;8.334;2022-09-09T01:53:30;99699.50;;;16.50;97.52
30598;BME280;17365;48.878;8.334;2022-09-09T02:01:22;99683.63;;;16.56;95.83
30598;BME280;17365;48.878;8.334;2022-09-09T02:03:56;99680.09;;;16.57;95.66
30598;BME280;17365;48.878;8.334;2022-09-09T02:06:28;99672.09;;;16.32;98.93
30598;BME280;17365;48.878;8.334;2022-09-09T02:08:56;99665.78;;;16.39;98.26
30598;BME280;17365;48.878;8.334;2022-09-09T02:11:24;99673.88;;;16.32;98.58
30598;BME280;17365;48.878;8.334;2022-09-09T02:13:58;99671.88;;;16.40;98.58
30598;BME280;17365;48.878;8.334;2022-09-09T02:16:40;99654.81;;;16.26;98.87
30598;BME280;17365;48.878;8.334;2022-09-09T02:21:40;99654.19;;;16.48;97.24
30598;BME280;17365;48.878;8.334;2022-09-09T02:24:08;99644.84;;;16.39;97.39
30598;BME280;17365;48.878;8.334;2022-09-09T02:26:38;99645.63;;;16.41;95.89
30598;BME280;17365;48.878;8.334;2022-09-09T02:29:08;99646.31;;;16.48;95.75
30598;BME280;17365;48.878;8.334;2022-09-09T02:31:36;99637.78;;;16.43;95.52
30598;BME280;17365;48.878;8.334;2022-09-09T02:34:05;99639.69;;;16.36;94.80
30598;BME280;17365;48.878;8.334;2022-09-09T02:36:33;99633.56;;;16.37;93.59
30598;BME280;17365;48.878;8.334;2022-09-09T02:39:00;99633.34;;;16.45;93.52
30598;BME280;17365;48.878;8.334;2022-09-09T02:41:31;99642.69;;;16.52;92.78
30598;BME280;17365;48.878;8.334;2022-09-09T02:43:57;99636.00;;;16.43;93.58
30598;BME280;17365;48.878;8.334;2022-09-09T02:49:11;99636.94;;;16.41;93.35
30598;BME280;17365;48.878;8.334;2022-09-09T02:51:52;99634.50;;;16.35;93.37
30598;BME280;17365;48.878;8.334;2022-09-09T02:54:33;99638.47;;;16.48;91.97
30598;BME280;17365;48.878;8.334;2022-09-09T02:57:06;99635.84;;;16.48;92.26
30598;BME280;17365;48.878;8.334;2022-09-09T02:59:32;99645.44;;;16.18;94.23
30598;BME280;17365;48.878;8.334;2022-09-09T03:01:58;99642.63;;;16.25;94.13
30598;BME280;17365;48.878;8.334;2022-09-09T03:04:24;99653.69;;;16.35;93.96
30598;BME280;17365;48.878;8.334;2022-09-09T03:06:50;99660.72;;;16.33;93.30
30598;BME280;17365;48.878;8.334;2022-09-09T03:09:15;99653.34;;;16.16;93.53
30598;BME280;17365;48.878;8.334;2022-09-09T03:11:40;99655.00;;;16.19;93.60
30598;BME280;17365;48.878;8.334;2022-09-09T03:14:05;99660.72;;;16.33;91.40
30598;BME280;17365;48.878;8.334;2022-09-09T03:16:31;99648.94;;;16.48;90.71
30598;BME280;17365;48.878;8.334;2022-09-09T03:18:58;99660.22;;;16.20;90.86
30598;BME280;17365;48.878;8.334;2022-09-09T03:21:23;99665.53;;;16.17;91.46
30598;BME280;17365;48.878;8.334;2022-09-09T03:23:50;99664.97;;;16.37;91.86
30598;BME280;17365;48.878;8.334;2022-09-09T03:26:15;99652.94;;;16.32;91.73
30598;BME280;17365;48.878;8.334;2022-09-09T03:28:41;99650.63;;;16.21;92.32
30598;BME280;17365;48.878;8.334;2022-09-09T03:31:07;99658.47;;;16.21;91.37
30598;BME280;17365;48.878;8.334;2022-09-09T03:33:35;99653.19;;;16.22;92.08
30598;BME280;17365;48.878;8.334;2022-09-09T03:36:02;99657.31;;;16.29;91.01
30598;BME280;17365;48.878;8.334;2022-09-09T03:38:27;99666.81;;;16.02;92.50
30598;BME280;17365;48.878;8.334;2022-09-09T03:40:55;99664.00;;;16.10;92.60
30598;BME280;17365;48.878;8.334;2022-09-09T03:43:24;99663.00;;;16.14;92.78
30598;BME280;17365;48.878;8.334;2022-09-09T03:45:50;99662.50;;;16.01;93.50
30598;BME280;17365;48.878;8.334;2022-09-09T03:48:16;99652.44;;;16.17;92.73
30598;BME280;17365;48.878;8.334;2022-09-09T03:50:50;99644.59;;;16.17;91.38
30598;BME280;17365;48.878;8.334;2022-09-09T03:53:19;99654.94;;;16.22;91.14
30598;BME280;17365;48.878;8.334;2022-09-09T03:55:45;99651.22;;;16.29;90.54
30598;BME280;17365;48.878;8.334;2022-09-09T03:58:15;99648.47;;;16.35;90.04
30598;BME280;17365;48.878;8.334;2022-09-09T04:00:41;99656.41;;;16.30;89.74
30598;BME280;17365;48.878;8.334;2022-09-09T04:03:10;99647.41;;;16.41;88.77
30598;BME280;17365;48.878;8.334;2022-09-09T04:05:35;99658.22;;;16.28;88.61
30598;BME280;17365;48.878;8.334;2022-09-09T04:08:05;99659.19;;;16.26;88.52
30598;BME280;17365;48.878;8.334;2022-09-09T04:10:30;99661.84;;;16.24;88.36
30598;BME280;17365;48.878;8.334;2022-09-09T04:12:56;99670.34;;;16.33;88.29
30598;BME280;17365;48.878;8.334;2022-09-09T04:15:22;99667.00;;;16.27;88.03
30598;BME280;17365;48.878;8.334;2022-09-09T04:17:47;99665.47;;;16.20;88.09
30598;BME280;17365;48.878;8.334;2022-09-09T04:20:12;99667.78;;;16.29;88.05
30598;BME280;17365;48.878;8.334;2022-09-09T04:22:37;99670.97;;;16.41;87.62
30598;BME280;17365;48.878;8.334;2022-09-09T04:25:05;99678.66;;;16.47;86.22
30598;BME280;17365;48.878;8.334;2022-09-09T04:27:31;99672.56;;;16.46;86.15
30598;BME280;17365;48.878;8.334;2022-09-09T04:29:56;99670.00;;;16.45;84.46
30598;BME280;17365;48.878;8.334;2022-09-09T04:32:22;99678.28;;;16.59;84.09
30598;BME280;17365;48.878;8.334;2022-09-09T04:34:47;99669.19;;;16.72;83.81
30598;BME280;17365;48.878;8.334;2022-09-09T04:37:13;99669.94;;;16.76;83.99
30598;BME280;17365;48.878;8.334;2022-09-09T04:39:39;99679.66;;;16.72;84.93
30598;BME280;17365;48.878;8.334;2022-09-09T04:42:04;99683.78;;;16.81;84.83
30598;BME280;17365;48.878;8.334;2022-09-09T04:44:29;99684.09;;;16.70;85.48
30598;BME280;17365;48.878;8.334;2022-09-09T04:46:55;99687.38;;;16.47;87.26
30598;BME280;17365;48.878;8.334;2022-09-09T04:49:21;99698.38;;;16.58;86.00
30598;BME280;17365;48.878;8.334;2022-09-09T04:51:48;99690.75;;;16.51;86.13
30598;BME280;17365;48.878;8.334;2022-09-09T04:54:14;99695.25;;;16.77;85.67
30598;BME280;17365;48.878;8.334;2022-09-09T04:56:39;99699.41;;;16.84;85.59
30598;BME280;17365;48.878;8.334;2022-09-09T04:59:06;99701.09;;;16.85;85.64
30598;BME280;17365;48.878;8.334;2022-09-09T05:01:31;99701.75;;;16.93;85.23
30598;BME280;17365;48.878;8.334;2022-09-09T05:03:57;99692.38;;;16.84;84.78
30598;BME280;17365;48.878;8.334;2022-09-09T05:06:23;99707.78;;;16.95;84.60
30598;BME280;17365;48.878;8.334;2022-09-09T05:08:48;99699.16;;;16.92;84.48
30598;BME280;17365;48.878;8.334;2022-09-09T05:13:47;99706.94;;;16.95;84.42
30598;BME280;17365;48.878;8.334;2022-09-09T05:16:13;99707.50;;;17.04;83.62
30598;BME280;17365;48.878;8.334;2022-09-09T05:18:39;99712.56;;;17.10;83.03
30598;BME280;17365;48.878;8.334;2022-09-09T05:21:06;99715.69;;;16.94;83.25
30598;BME280;17365;48.878;8.334;2022-09-09T05:23:33;99709.31;;;17.02;83.17
30598;BME280;17365;48.878;8.334;2022-09-09T05:25:59;99711.66;;;17.11;82.86
30598;BME280;17365;48.878;8.334;2022-09-09T05:28:25;99718.50;;;17.15;82.28
30598;BME280;17365;48.878;8.334;2022-09-09T05:30:58;99718.56;;;17.14;81.63
30598;BME280;17365;48.878;8.334;2022-09-09T05:33:24;99717.38;;;17.24;81.17
30598;BME280;17365;48.878;8.334;2022-09-09T05:36:02;99721.03;;;17.18;81.38
30598;BME280;17365;48.878;8.334;2022-09-09T05:38:28;99718.19;;;17.26;81.27
30598;BME280;17365;48.878;8.334;2022-09-09T05:40:54;99723.41;;;17.26;81.85
30598;BME280;17365;48.878;8.334;2022-09-09T05:43:22;99718.06;;;17.29;81.67
30598;BME280;17365;48.878;8.334;2022-09-09T05:45:47;99723.31;;;17.29;80.93
30598;BME280;17365;48.878;8.334;2022-09-09T05:48:14;99726.16;;;17.50;80.13
30598;BME280;17365;48.878;8.334;2022-09-09T05:50:43;99725.38;;;17.74;80.03
30598;BME280;17365;48.878;8.334;2022-09-09T05:53:10;99724.72;;;17.67;79.68
30598;BME280;17365;48.878;8.334;2022-09-09T05:55:35;99727.09;;;17.75;79.34
30598;BME280;17365;48.878;8.334;2022-09-09T05:58:01;99727.69;;;17.83;79.14
30598;BME280;17365;48.878;8.334;2022-09-09T06:00:26;99734.34;;;17.93;78.80
30598;BME280;17365;48.878;8.334;2022-09-09T06:02:52;99733.59;;;17.90;78.46
30598;BME280;17365;48.878;8.334;2022-09-09T06:05:19;99727.31;;;17.94;77.21
30598;BME280;17365;48.878;8.334;2022-09-09T06:07:44;99731.84;;;17.89;76.88
30598;BME280;17365;48.878;8.334;2022-09-09T06:10:11;99735.94;;;17.97;77.09
30598;BME280;17365;48.878;8.334;2022-09-09T06:12:38;99730.06;;;17.91;77.23
30598;BME280;17365;48.878;8.334;2022-09-09T06:15:04;99734.59;;;17.86;77.17
30598;BME280;17365;48.878;8.334;2022-09-09T06:17:30;99736.84;;;17.96;77.04
30598;BME280;17365;48.878;8.334;2022-09-09T06:19:55;99733.59;;;17.90;76.63
30598;BME280;17365;48.878;8.334;2022-09-09T06:22:20;99718.97;;;18.08;76.14
30598;BME280;17365;48.878;8.334;2022-09-09T06:24:46;99728.59;;;18.07;77.35
30598;BME280;17365;48.878;8.334;2022-09-09T06:27:11;99717.94;;;18.12;77.92
30598;BME280;17365;48.878;8.334;2022-09-09T06:29:38;99715.31;;;18.12;77.85
30598;BME280;17365;48.878;8.334;2022-09-09T06:32:04;99718.66;;;18.17;78.42
30598;BME280;17365;48.878;8.334;2022-09-09T06:34:29;99722.53;;;18.30;77.73
30598;BME280;17365;48.878;8.334;2022-09-09T06:36:55;99721.56;;;18.32;77.92
30598;BME280;17365;48.878;8.334;2022-09-09T06:39:22;99727.22;;;18.45;77.53
30598;BME280;17365;48.878;8.334;2022-09-09T06:41:48;99726.44;;;18.43;77.22
30598;BME280;17365;48.878;8.334;2022-09-09T06:44:13;99719.78;;;18.58;77.35
30598;BME280;17365;48.878;8.334;2022-09-09T06:46:40;99721.97;;;18.70;77.00
30598;BME280;17365;48.878;8.334;2022-09-09T06:49:05;99717.34;;;18.77;76.42
30598;BME280;17365;48.878;8.334;2022-09-09T06:51:33;99722.25;;;18.86;76.37
30598;BME280;17365;48.878;8.334;2022-09-09T06:54:00;99721.91;;;18.95;75.88
30598;BME280;17365;48.878;8.334;2022-09-09T06:56:32;99719.25;;;18.95;76.28
30598;BME280;17365;48.878;8.334;2022-09-09T06:58:59;99713.94;;;18.97;76.35
30598;BME280;17365;48.878;8.334;2022-09-09T07:01:31;99717.94;;;19.07;76.09
30598;BME280;17365;48.878;8.334;2022-09-09T07:03:57;99721.00;;;19.18;75.70
30598;BME280;17365;48.878;8.334;2022-09-09T07:06:28;99722.03;;;18.92;76.48
30598;BME280;17365;48.878;8.334;2022-09-09T07:08:56;99731.22;;;18.80;76.79
30598;BME280;17365;48.878;8.334;2022-09-09T07:11:27;99740.16;;;18.98;76.47
30598;BME280;17365;48.878;8.334;2022-09-09T07:13:54;99732.97;;;19.03;77.64
30598;BME280;17365;48.878;8.334;2022-09-09T07:16:21;99731.22;;;19.02;79.44
30598;BME280;17365;48.878;8.334;2022-09-09T07:18:49;99737.31;;;19.04;80.17
30598;BME280;17365;48.878;8.334;2022-09-09T07:21:15;99740.53;;;19.11;80.81
30598;BME280;17365;48.878;8.334;2022-09-09T07:23:41;99733.94;;;19.23;81.12
30598;BME280;17365;48.878;8.334;2022-09-09T07:26:12;99729.66;;;19.42;82.13
30598;BME280;17365;48.878;8.334;2022-09-09T07:28:38;99732.00;;;19.49;82.05
30598;BME280;17365;48.878;8.334;2022-09-09T07:31:06;99735.00;;;19.18;83.29
30598;BME280;17365;48.878;8.334;2022-09-09T07:33:33;99724.72;;;19.56;82.14
30598;BME280;17365;48.878;8.334;2022-09-09T07:36:08;99733.91;;;19.88;82.16
30598;BME280;17365;48.878;8.334;2022-09-09T07:38:40;99727.75;;;19.45;83.23
30598;BME280;17365;48.878;8.334;2022-09-09T07:41:07;99732.44;;;19.61;80.82
30598;BME280;17365;48.878;8.334;2022-09-09T07:43:37;99734.72;;;19.46;81.46
30598;BME280;17365;48.878;8.334;2022-09-09T07:46:02;99739.06;;;19.71;80.99
30598;BME280;17365;48.878;8.334;2022-09-09T07:48:28;99741.28;;;19.80;81.36
30598;BME280;17365;48.878;8.334;2022-09-09T07:53:34;99741.88;;;20.27;78.15
30598;BME280;17365;48.878;8.334;2022-09-09T07:56:10;99744.31;;;20.32;75.40
30598;BME280;17365;48.878;8.334;2022-09-09T07:58:37;99740.34;;;20.62;76.15
30598;BME280;17365;48.878;8.334;2022-09-09T08:01:30;99747.03;;;20.70;75.93
30598;BME280;17365;48.878;8.334;2022-09-09T08:03:59;99744.63;;;21.03;74.42
30598;BME280;17365;48.878;8.334;2022-09-09T08:06:27;99744.41;;;21.07;73.29
30598;BME280;17365;48.878;8.334;2022-09-09T08:08:53;99745.91;;;20.75;73.36
30598;BME280;17365;48.878;8.334;2022-09-09T08:11:25;99743.19;;;20.77;71.00
30598;BME280;17365;48.878;8.334;2022-09-09T08:13:51;99743.00;;;20.22;73.65
30598;BME280;17365;48.878;8.334;2022-09-09T08:16:19;99749.25;;;20.19;73.67
30598;BME280;17365;48.878;8.334;2022-09-09T08:18:47;99761.25;;;20.06;75.05
30598;BME280;17365;48.878;8.334;2022-09-09T08:21:17;99767.81;;;19.96;76.05
30598;BME280;17365;48.878;8.334;2022-09-09T08:23:45;99779.31;;;19.73;77.19
30598;BME280;17365;48.878;8.334;2022-09-09T08:26:16;99773.97;;;19.74;78.17
30598;BME280;17365;48.878;8.334;2022-09-09T08:28:43;99767.19;;;19.69;77.67
30598;BME280;17365;48.878;8.334;2022-09-09T08:31:14;99766.41;;;19.22;80.68
30598;BME280;17365;48.878;8.334;2022-09-09T08:33:42;99766.94;;;19.75;79.17
30598;BME280;17365;48.878;8.334;2022-09-09T08:36:13;99773.59;;;19.84;78.40
30598;BME280;17365;48.878;8.334;2022-09-09T08:38:40;99771.44;;;20.34;76.78
30598;BME280;17365;48.878;8.334;2022-09-09T08:52:23;99786.63;;;19.87;76.27
30598;BME280;17365;48.878;8.334;2022-09-09T08:54:50;99797.25;;;19.63;77.26
30598;BME280;17365;48.878;8.334;2022-09-09T08:57:21;99790.66;;;19.95;76.39
30598;BME280;17365;48.878;8.334;2022-09-09T08:59:51;99801.34;;;20.13;75.36
30598;BME280;17365;48.878;8.334;2022-09-09T09:02:28;99796.06;;;20.13;76.38
30598;BME280;17365;48.878;8.334;2022-09-09T09:05:18;99796.59;;;20.21;75.74
30598;BME280;17365;48.878;8.334;2022-09-09T09:10:30;99788.69;;;20.21;75.90
30598;BME280;17365;48.878;8.334;2022-09-09T09:12:58;99787.47;;;20.29;74.68
30598;BME280;17365;48.878;8.334;2022-09-09T09:15:26;99780.22;;;20.55;73.16
30598;BME280;17365;48.878;8.334;2022-09-09T09:17:53;99772.16;;;20.38;73.42
30598;BME280;17365;48.878;8.334;2022-09-09T09:20:27;99778.97;;;20.82;71.90
30598;BME280;17365;48.878;8.334;2022-09-09T09:23:00;99770.78;;;20.49;72.12
30598;BME280;17365;48.878;8.334;2022-09-09T09:25:31;99773.75;;;20.81;72.80
30598;BME280;17365;48.878;8.334;2022-09-09T09:28:16;99773.78;;;21.00;71.97
30598;BME280;17365;48.878;8.334;2022-09-09T09:31:06;99771.94;;;21.20;70.00
30598;BME280;17365;48.878;8.334;2022-09-09T09:36:03;99777.78;;;21.08;70.20
30598;BME280;17365;48.878;8.334;2022-09-09T09:38:33;99780.63;;;21.22;69.77
30598;BME280;17365;48.878;8.334;2022-09-09T09:40:59;99777.78;;;20.89;71.29
30598;BME280;17365;48.878;8.334;2022-09-09T09:43:36;99781.31;;;20.49;72.70
30598;BME280;17365;48.878;8.334;2022-09-09T09:46:05;99785.41;;;20.56;71.62
30598;BME280;17365;48.878;8.334;2022-09-09T09:48:42;99779.25;;;20.76;72.94
30598;BME280;17365;48.878;8.334;2022-09-09T09:51:13;99771.88;;;20.84;70.73
30598;BME280;17365;48.878;8.334;2022-09-09T09:53:41;99777.91;;;20.86;71.17
30598;BME280;17365;48.878;8.334;2022-09-09T09:56:09;99775.66;;;20.98;70.51
30598;BME280;17365;48.878;8.334;2022-09-09T10:01:28;99780.88;;;20.40;70.41
30598;BME280;17365;48.878;8.334;2022-09-09T10:03:59;99790.47;;;20.20;71.46
30598;BME280;17365;48.878;8.334;2022-09-09T10:06:30;99788.50;;;20.25;71.38
30598;BME280;17365;48.878;8.334;2022-09-09T10:08:55;99787.84;;;20.61;70.83
30598;BME280;17365;48.878;8.334;2022-09-09T10:11:35;99780.63;;;20.85;69.67
30598;BME280;17365;48.878;8.334;2022-09-09T10:14:19;99785.94;;;20.83;68.75
30598;BME280;17365;48.878;8.334;2022-09-09T10:17:27;99770.84;;;21.06;68.99
30598;BME280;17365;48.878;8.334;2022-09-09T10:26:25;99750.78;;;20.84;70.90
30598;BME280;17365;48.878;8.334;2022-09-09T10:37:01;99772.38;;;21.66;66.20
30598;BME280;17365;48.878;8.334;2022-09-09T10:39:38;99767.31;;;21.62;66.29
30598;BME280;17365;48.878;8.334;2022-09-09T10:42:12;99767.38;;;20.86;66.25
30598;BME280;17365;48.878;8.334;2022-09-09T10:44:53;99775.53;;;20.80;66.54
30598;BME280;17365;48.878;8.334;2022-09-09T10:50:40;99769.22;;;20.84;67.55
30598;BME280;17365;48.878;8.334;2022-09-09T10:53:35;99772.50;;;20.89;66.64
30598;BME280;17365;48.878;8.334;2022-09-09T10:56:06;99771.16;;;21.00;65.88
30598;BME280;17365;48.878;8.334;2022-09-09T10:58:44;99780.75;;;21.01;66.52
30598;BME280;17365;48.878;8.334;2022-09-09T11:01:31;99765.56;;;20.68;67.04
30598;BME280;17365;48.878;8.334;2022-09-09T11:04:25;99767.56;;;20.63;67.10
30598;BME280;17365;48.878;8.334;2022-09-09T11:06:55;99761.09;;;20.89;67.08
30598;BME280;17365;48.878;8.334;2022-09-09T11:09:33;99756.88;;;21.22;65.53
30598;BME280;17365;48.878;8.334;2022-09-09T11:12:02;99748.97;;;21.41;64.84
30598;BME280;17365;48.878;8.334;2022-09-09T11:14:38;99751.53;;;21.43;64.08
30598;BME280;17365;48.878;8.334;2022-09-09T11:17:10;99746.91;;;21.83;63.10
30598;BME280;17365;48.878;8.334;2022-09-09T11:19:42;99741.00;;;21.95;62.98
30598;BME280;17365;48.878;8.334;2022-09-09T11:24:53;99734.19;;;22.08;60.54
30598;BME280;17365;48.878;8.334;2022-09-09T11:27:29;99745.75;;;21.71;61.74
30598;BME280;17365;48.878;8.334;2022-09-09T11:30:18;99737.53;;;21.77;61.82
30598;BME280;17365;48.878;8.334;2022-09-09T11:39:17;99732.22;;;22.62;57.14
30598;BME280;17365;48.878;8.334;2022-09-09T11:41:48;99727.16;;;22.42;57.02
30598;BME280;17365;48.878;8.334;2022-09-09T11:44:19;99727.69;;;22.48;56.73
30598;BME280;17365;48.878;8.334;2022-09-09T11:46:51;99723.69;;;22.24;56.70
30598;BME280;17365;48.878;8.334;2022-09-09T11:49:28;99718.25;;;22.27;56.13
30598;BME280;17365;48.878;8.334;2022-09-09T11:51:55;99720.94;;;22.43;57.07
30598;BME280;17365;48.878;8.334;2022-09-09T11:54:29;99713.91;;;22.26;57.19
30598;BME280;17365;48.878;8.334;2022-09-09T11:56:55;99706.66;;;22.29;55.79
30598;BME280;17365;48.878;8.334;2022-09-09T11:59:25;99710.66;;;21.86;57.19
30598;BME280;17365;48.878;8.334;2022-09-09T12:04:29;99704.81;;;22.31;56.48
30598;BME280;17365;48.878;8.334;2022-09-09T12:06:59;99699.88;;;22.41;55.53
30598;BME280;17365;48.878;8.334;2022-09-09T12:19:41;99700.34;;;22.81;52.65
30598;BME280;17365;48.878;8.334;2022-09-09T12:25:18;99688.31;;;22.59;53.07
30598;BME280;17365;48.878;8.334;2022-09-09T12:28:11;99695.06;;;22.81;51.28
30598;BME280;17365;48.878;8.334;2022-09-09T12:33:18;99697.78;;;22.63;52.10
30598;BME280;17365;48.878;8.334;2022-09-09T12:35:47;99698.34;;;22.37;52.45
30598;BME280;17365;48.878;8.334;2022-09-09T12:38:22;99709.88;;;22.01;55.06
30598;BME280;17365;48.878;8.334;2022-09-09T12:40:56;99739.50;;;20.81;60.33
30598;BME280;17365;48.878;8.334;2022-09-09T12:43:23;99736.06;;;21.16;63.13
30598;BME280;17365;48.878;8.334;2022-09-09T12:45:51;99728.97;;;20.21;68.85
30598;BME280;17365;48.878;8.334;2022-09-09T12:48:27;99722.50;;;21.05;67.24
30598;BME280;17365;48.878;8.334;2022-09-09T12:50:55;99719.00;;;21.23;69.55
30598;BME280;17365;48.878;8.334;2022-09-09T12:55:56;99699.84;;;21.91;66.66
30598;BME280;17365;48.878;8.334;2022-09-09T12:58:22;99699.00;;;22.07;65.47
30598;BME280;17365;48.878;8.334;2022-09-09T13:00:53;99703.25;;;22.27;64.95
30598;BME280;17365;48.878;8.334;2022-09-09T13:03:21;99699.53;;;22.14;65.56
30598;BME280;17365;48.878;8.334;2022-09-09T13:05:48;99690.50;;;22.18;66.02
30598;BME280;17365;48.878;8.334;2022-09-09T13:08:14;99687.09;;;21.82;66.81
30598;BME280;17365;48.878;8.334;2022-09-09T13:13:15;99678.50;;;21.43;69.77
30598;BME280;17365;48.878;8.334;2022-09-09T13:15:55;99678.81;;;21.55;69.86
30598;BME280;17365;48.878;8.334;2022-09-09T13:18:28;99672.75;;;21.70;68.00
30598;BME280;17365;48.878;8.334;2022-09-09T13:20:56;99666.44;;;22.40;64.91
30598;BME280;17365;48.878;8.334;2022-09-09T13:23:27;99662.72;;;21.94;65.40
30598;BME280;17365;48.878;8.334;2022-09-09T13:26:00;99657.75;;;21.88;66.80
30598;BME280;17365;48.878;8.334;2022-09-09T13:28:30;99652.88;;;21.63;67.41
30598;BME280;17365;48.878;8.334;2022-09-09T13:31:04;99656.81;;;21.71;66.06
30598;BME280;17365;48.878;8.334;2022-09-09T13:33:35;99662.03;;;21.90;65.68
30598;BME280;17365;48.878;8.334;2022-09-09T13:36:08;99666.69;;;21.68;67.11
30598;BME280;17365;48.878;8.334;2022-09-09T13:41:21;99662.09;;;21.71;59.66
30598;BME280;17365;48.878;8.334;2022-09-09T13:43:49;99665.81;;;21.85;58.64
30598;BME280;17365;48.878;8.334;2022-09-09T13:46:41;99660.31;;;21.89;58.00
30598;BME280;17365;48.878;8.334;2022-09-09T13:54:03;99658.91;;;21.99;57.81
30598;BME280;17365;48.878;8.334;2022-09-09T13:56:31;99654.66;;;21.79;58.08
30598;BME280;17365;48.878;8.334;2022-09-09T13:58:57;99654.56;;;21.98;57.48
30598;BME280;17365;48.878;8.334;2022-09-09T14:01:23;99655.41;;;21.99;56.91
30598;BME280;17365;48.878;8.334;2022-09-09T14:03:48;99642.28;;;22.15;56.72
30598;BME280;17365;48.878;8.334;2022-09-09T14:06:14;99645.28;;;22.24;55.33
30598;BME280;17365;48.878;8.334;2022-09-09T14:08:39;99651.75;;;22.01;52.83
30598;BME280;17365;48.878;8.334;2022-09-09T14:11:05;99641.88;;;22.05;53.60
30598;BME280;17365;48.878;8.334;2022-09-09T14:13:31;99654.94;;;21.91;53.69
30598;BME280;17365;48.878;8.334;2022-09-09T14:15:56;99656.97;;;21.86;51.77
30598;BME280;17365;48.878;8.334;2022-09-09T14:18:21;99655.75;;;22.10;51.07
30598;BME280;17365;48.878;8.334;2022-09-09T14:20:48;99665.03;;;22.17;50.89
30598;BME280;17365;48.878;8.334;2022-09-09T14:23:15;99651.69;;;22.36;50.74
30598;BME280;17365;48.878;8.334;2022-09-09T14:25:42;99650.59;;;22.40;49.84
30598;BME280;17365;48.878;8.334;2022-09-09T14:28:12;99647.25;;;22.52;48.50
30598;BME280;17365;48.878;8.334;2022-09-09T14:30:39;99638.19;;;22.25;47.78
30598;BME280;17365;48.878;8.334;2022-09-09T14:33:05;99648.56;;;21.95;49.00
30598;BME280;17365;48.878;8.334;2022-09-09T14:35:30;99649.63;;;21.75;48.86
30598;BME280;17365;48.878;8.334;2022-09-09T14:37:56;99653.34;;;21.88;49.82
30598;BME280;17365;48.878;8.334;2022-09-09T14:40:21;99650.00;;;21.67;50.40
30598;BME280;17365;48.878;8.334;2022-09-09T14:42:47;99654.28;;;21.70;51.06
30598;BME280;17365;48.878;8.334;2022-09-09T14:45:12;99659.97;;;21.95;51.09
30598;BME280;17365;48.878;8.334;2022-09-09T14:47:37;99657.66;;;22.06;51.10
30598;BME280;17365;48.878;8.334;2022-09-09T14:50:04;99663.34;;;21.99;51.27
30598;BME280;17365;48.878;8.334;2022-09-09T14:52:30;99665.63;;;22.05;51.29
30598;BME280;17365;48.878;8.334;2022-09-09T14:54:55;99663.97;;;21.87;51.69
30598;BME280;17365;48.878;8.334;2022-09-09T14:57:21;99666.38;;;21.91;51.79
30598;BME280;17365;48.878;8.334;2022-09-09T14:59:46;99664.97;;;21.84;52.42
30598;BME280;17365;48.878;8.334;2022-09-09T15:02:11;99668.97;;;21.75;53.57
30598;BME280;17365;48.878;8.334;2022-09-09T15:04:38;99691.00;;;21.57;54.67
30598;BME280;17365;48.878;8.334;2022-09-09T15:07:04;99709.22;;;21.44;57.33
30598;BME280;17365;48.878;8.334;2022-09-09T15:09:29;99712.28;;;21.54;59.39
30598;BME280;17365;48.878;8.334;2022-09-09T15:14:20;99729.00;;;21.17;63.90
30598;BME280;17365;48.878;8.334;2022-09-09T15:16:46;99724.94;;;21.10;64.90
30598;BME280;17365;48.878;8.334;2022-09-09T15:19:11;99722.25;;;21.11;66.87
30598;BME280;17365;48.878;8.334;2022-09-09T15:21:37;99726.31;;;20.62;71.37